createdAt,value
2017-09-20T00:00:54.271Z,83.4
2017-09-20T00:01:53.693Z,83.5
2017-09-20T00:02:52.611Z,83.8
2017-09-20T00:03:51.780Z,84.5
2017-09-20T00:04:50.954Z,84.7
2017-09-20T00:05:50.503Z,84.6
2017-09-20T00:06:49.425Z,84.5
2017-09-20T00:07:48.856Z,85
2017-09-20T00:08:47.530Z,84.9
2017-09-20T00:09:47.084Z,84.8
2017-09-20T00:10:45.901Z,84.4
2017-09-20T00:11:45.084Z,84.1
2017-09-20T00:12:44.387Z,84.1
2017-09-20T00:13:43.683Z,84.1
2017-09-20T00:14:42.737Z,84.2
2017-09-20T00:16:41.165Z,83.9
2017-09-20T00:17:40.584Z,85
2017-09-20T00:18:39.634Z,85.1
2017-09-20T00:19:39.187Z,84.9
2017-09-20T00:20:37.990Z,84.7
2017-09-20T00:21:37.191Z,84.5
2017-09-20T00:22:36.488Z,85
2017-09-20T00:23:35.790Z,85.9
2017-09-20T00:24:34.715Z,85.8
2017-09-20T00:25:34.137Z,85.4
2017-09-20T00:26:33.068Z,85.5
2017-09-20T00:27:32.242Z,86.2
2017-09-20T00:28:31.785Z,86
2017-09-20T00:29:30.708Z,86.1
2017-09-20T00:30:29.801Z,86.2
2017-09-20T00:31:29.229Z,85.8
2017-09-20T00:32:28.275Z,85.5
2017-09-20T00:33:27.575Z,85.3
2017-09-20T00:34:26.621Z,85.4
2017-09-20T00:34:57.232Z,85.4
2017-09-20T00:35:27.600Z,85.7
2017-09-20T00:36:25.138Z,85.7
2017-09-20T00:37:23.929Z,85.7
2017-09-20T00:38:23.222Z,86.6
2017-09-20T00:39:22.273Z,86.1
2017-09-20T00:40:21.578Z,86.5
2017-09-20T00:41:20.751Z,86.2
2017-09-20T00:42:19.926Z,86.1
2017-09-20T00:43:19.487Z,86.4
2017-09-20T00:44:18.542Z,86.1
2017-09-20T00:45:17.467Z,85.9
2017-09-20T00:45:48.205Z,85.9
2017-09-20T00:46:18.314Z,85.8
2017-09-20T00:47:15.849Z,86.3
2017-09-20T00:49:14.155Z,85.8
2017-09-20T00:50:13.366Z,85.5
2017-09-20T00:51:12.665Z,85.8
2017-09-20T00:52:11.837Z,86
2017-09-20T00:53:11.262Z,86.5
2017-09-20T00:54:10.435Z,86.2
2017-09-20T00:55:09.611Z,86
2017-09-20T00:56:08.662Z,86.1
2017-09-20T00:57:07.838Z,85.8
2017-09-20T00:58:06.876Z,85.7
2017-09-20T00:59:06.053Z,86.2
2017-09-20T01:00:05.095Z,86.2
2017-09-20T01:01:04.520Z,86.2
2017-09-20T01:02:03.698Z,86
2017-09-20T01:03:02.619Z,86.2
2017-09-20T01:04:02.175Z,86
2017-09-20T01:06:00.238Z,85.9
2017-09-20T01:06:59.289Z,86.4
2017-09-20T01:07:58.457Z,86.4
2017-09-20T01:08:57.883Z,86.4
2017-09-20T01:09:57.184Z,86.4
2017-09-20T01:10:55.978Z,86.3
2017-09-20T01:11:55.399Z,86.2
2017-09-20T01:12:54.696Z,86.5
2017-09-20T01:13:53.861Z,87
2017-09-20T01:14:52.906Z,87.1
2017-09-20T01:15:52.084Z,86.9
2017-09-20T01:16:51.382Z,86.8
2017-09-20T01:17:21.491Z,86.8
2017-09-20T01:17:52.106Z,86.8
2017-09-20T01:19:49.032Z,87.3
2017-09-20T01:20:47.968Z,87.4
2017-09-20T01:22:46.163Z,87.8
2017-09-20T01:23:45.712Z,87.5
2017-09-20T01:24:44.503Z,87.4
2017-09-20T01:25:43.796Z,87.4
2017-09-20T01:26:43.100Z,87.6
2017-09-20T01:27:42.026Z,87.4
2017-09-20T01:28:12.397Z,87.4
2017-09-20T01:28:43.013Z,87.3
2017-09-20T01:29:40.319Z,87.7
2017-09-20T01:30:39.626Z,87.5
2017-09-20T01:31:39.046Z,87.6
2017-09-20T01:32:38.090Z,87.5
2017-09-20T01:33:37.263Z,87.8
2017-09-20T01:34:36.445Z,87.7
2017-09-20T01:36:34.590Z,88.1
2017-09-20T01:37:34.140Z,88.3
2017-09-20T01:38:33.059Z,88.6
2017-09-20T01:39:32.104Z,88.5
2017-09-20T01:40:31.286Z,88.4
2017-09-20T01:41:30.716Z,88.5
2017-09-20T01:42:29.636Z,88.6
2017-09-20T01:43:28.950Z,88.6
2017-09-20T01:44:28.371Z,88.6
2017-09-20T01:45:27.541Z,88.3
2017-09-20T01:46:26.331Z,88.2
2017-09-20T01:47:25.641Z,88.5
2017-09-20T01:48:24.938Z,88.5
2017-09-20T01:49:24.414Z,88.5
2017-09-20T01:50:23.082Z,89.1
2017-09-20T01:51:22.515Z,89.6
2017-09-20T01:52:21.684Z,89.5
2017-09-20T01:53:20.351Z,89.4
2017-09-20T01:54:19.521Z,89.2
2017-09-20T01:55:18.814Z,89.3
2017-09-20T01:56:18.240Z,89.3
2017-09-20T01:57:17.166Z,89.6
2017-09-20T01:58:16.338Z,89.5
2017-09-20T01:59:15.646Z,90
2017-09-20T02:00:14.453Z,89.9
2017-09-20T02:01:14.012Z,89.9
2017-09-20T02:02:13.057Z,89.8
2017-09-20T02:03:12.353Z,90
2017-09-20T02:04:11.270Z,89.9
2017-09-20T02:05:10.564Z,89.7
2017-09-20T02:06:09.736Z,89.6
2017-09-20T02:07:09.043Z,89.5
2017-09-20T02:08:07.841Z,90.3
2017-09-20T02:09:07.011Z,90.4
2017-09-20T02:10:06.187Z,90.4
2017-09-20T02:11:05.368Z,90.3
2017-09-20T02:12:04.546Z,90.2
2017-09-20T02:13:03.723Z,90.2
2017-09-20T02:14:02.908Z,90.2
2017-09-20T02:15:02.208Z,90.1
2017-09-20T02:16:01.393Z,89.9
2017-09-20T02:17:00.566Z,90.3
2017-09-20T02:17:59.359Z,90.2
2017-09-20T02:18:58.910Z,90.5
2017-09-20T02:19:57.830Z,90.4
2017-09-20T02:20:57.253Z,90.4
2017-09-20T02:22:55.436Z,90.5
2017-09-20T02:23:54.613Z,90.6
2017-09-20T02:24:53.657Z,90.6
2017-09-20T02:25:52.958Z,90.4
2017-09-20T02:26:52.006Z,90.4
2017-09-20T02:27:51.310Z,90.7
2017-09-20T02:28:50.611Z,90.7
2017-09-20T02:29:49.662Z,90.7
2017-09-20T02:30:48.963Z,90.5
2017-09-20T02:31:48.017Z,90.6
2017-09-20T02:32:46.954Z,90.5
2017-09-20T02:33:46.133Z,90.6
2017-09-20T02:34:45.184Z,90.7
2017-09-20T02:35:44.233Z,90.7
2017-09-20T02:36:43.413Z,90.7
2017-09-20T02:37:42.970Z,90.6
2017-09-20T02:38:41.772Z,90.5
2017-09-20T02:39:41.076Z,91
2017-09-20T02:40:47.962Z,90.8
2017-09-20T02:41:39.600Z,91.2
2017-09-20T02:42:38.272Z,91.3
2017-09-20T02:43:37.834Z,91.2
2017-09-20T02:44:37.138Z,91.1
2017-09-20T02:45:35.932Z,91.2
2017-09-20T02:46:35.232Z,91.1
2017-09-20T02:47:34.411Z,91.3
2017-09-20T02:48:33.334Z,91.3
2017-09-20T02:49:03.563Z,91.3
2017-09-20T02:49:34.295Z,91.4
2017-09-20T02:50:31.968Z,91.7
2017-09-20T02:51:30.773Z,91.4
2017-09-20T02:52:30.204Z,91.5
2017-09-20T02:53:29.252Z,91.6
2017-09-20T02:54:28.318Z,91.8
2017-09-20T02:55:27.374Z,91.6
2017-09-20T02:56:26.547Z,91.4
2017-09-20T02:57:25.589Z,91.8
2017-09-20T02:58:24.883Z,91.5
2017-09-20T02:59:24.183Z,91.4
2017-09-20T03:00:22.981Z,91.7
2017-09-20T03:01:22.274Z,91.8
2017-09-20T03:02:21.695Z,91.5
2017-09-20T03:03:20.617Z,91.9
2017-09-20T03:05:19.052Z,91.7
2017-09-20T03:07:17.477Z,91.3
2017-09-20T03:07:47.704Z,91.3
2017-09-20T03:09:15.563Z,91.4
2017-09-20T03:11:13.864Z,91.6
2017-09-20T03:12:12.947Z,91.5
2017-09-20T03:13:12.249Z,91.7
2017-09-20T03:14:11.669Z,91.6
2017-09-20T03:16:09.591Z,91.6
2017-09-20T03:17:09.018Z,91.5
2017-09-20T03:19:07.198Z,92.1
2017-09-20T03:20:06.004Z,92.1
2017-09-20T03:22:04.448Z,92
2017-09-20T03:23:03.493Z,91.8
2017-09-20T03:24:02.789Z,91.8
2017-09-20T03:25:02.086Z,91.8
2017-09-20T03:26:00.883Z,91.7
2017-09-20T03:27:00.311Z,91.9
2017-09-20T03:28:58.865Z,92
2017-09-20T03:29:57.652Z,92.2
2017-09-20T03:30:56.954Z,92
2017-09-20T03:31:56.010Z,91.9
2017-09-20T03:32:55.304Z,92
2017-09-20T03:33:54.473Z,91.8
2017-09-20T03:34:53.397Z,92
2017-09-20T03:35:52.691Z,92.1
2017-09-20T03:36:51.868Z,91.9
2017-09-20T03:38:50.044Z,91.8
2017-09-20T03:39:48.972Z,91.8
2017-09-20T03:40:48.394Z,91.9
2017-09-20T03:41:47.324Z,92.1
2017-09-20T03:42:46.497Z,92.2
2017-09-20T03:43:16.735Z,92.2
2017-09-20T03:44:44.837Z,92
2017-09-20T03:45:44.130Z,91.9
2017-09-20T03:46:43.047Z,91.9
2017-09-20T03:48:41.346Z,92.2
2017-09-20T03:49:40.889Z,92.3
2017-09-20T03:50:39.550Z,92.2
2017-09-20T03:51:38.978Z,92.3
2017-09-20T03:52:37.772Z,92.3
2017-09-20T03:53:37.324Z,92.3
2017-09-20T03:54:36.620Z,92.4
2017-09-20T03:55:35.664Z,92.3
2017-09-20T03:56:34.325Z,92.2
2017-09-20T03:57:33.495Z,92.1
2017-09-20T03:59:31.924Z,91.9
2017-09-20T04:00:31.106Z,91.9
2017-09-20T04:01:30.032Z,91.8
2017-09-20T04:02:29.451Z,91.9
2017-09-20T04:03:28.624Z,91.9
2017-09-20T04:04:27.703Z,91.8
2017-09-20T04:05:26.998Z,91.7
2017-09-20T04:06:26.296Z,91.9
2017-09-20T04:07:24.965Z,91.9
2017-09-20T04:08:24.144Z,91.9
2017-09-20T04:09:23.437Z,91.8
2017-09-20T04:10:22.741Z,91.9
2017-09-20T04:11:21.913Z,91.9
2017-09-20T04:12:21.086Z,92
2017-09-20T04:13:19.886Z,92.1
2017-09-20T04:14:19.063Z,92.2
2017-09-20T04:15:18.373Z,91.9
2017-09-20T04:16:17.673Z,91.8
2017-09-20T04:17:16.463Z,92
2017-09-20T04:18:16.016Z,91.8
2017-09-20T04:19:15.073Z,91.8
2017-09-20T04:20:13.994Z,91.9
2017-09-20T04:21:13.165Z,91.8
2017-09-20T04:22:12.084Z,91.8
2017-09-20T04:23:11.385Z,91.9
2017-09-20T04:24:10.431Z,91.8
2017-09-20T04:24:40.916Z,91.8
2017-09-20T04:25:11.535Z,92
2017-09-20T04:25:42.022Z,92
2017-09-20T04:27:08.116Z,92.1
2017-09-20T04:28:07.172Z,92.2
2017-09-20T04:29:06.345Z,92.2
2017-09-20T04:30:05.392Z,91.9
2017-09-20T04:31:04.567Z,91.9
2017-09-20T04:32:03.617Z,92.1
2017-09-20T04:33:02.793Z,92
2017-09-20T04:34:01.965Z,91.9
2017-09-20T04:35:01.021Z,92
2017-09-20T04:36:59.702Z,91.7
2017-09-20T04:37:58.536Z,91.8
2017-09-20T04:38:57.588Z,91.8
2017-09-20T04:39:56.634Z,92
2017-09-20T04:40:56.180Z,92
2017-09-20T04:41:54.850Z,91.8
2017-09-20T04:42:54.019Z,91.9
2017-09-20T04:43:53.572Z,91.8
2017-09-20T04:44:52.379Z,91.8
2017-09-20T04:45:51.687Z,91.8
2017-09-20T04:46:50.989Z,91.7
2017-09-20T04:47:49.795Z,91.7
2017-09-20T04:48:48.965Z,91.6
2017-09-20T04:49:48.380Z,91.7
2017-09-20T04:50:47.690Z,91.7
2017-09-20T04:51:46.360Z,91.8
2017-09-20T04:52:45.906Z,91.9
2017-09-20T04:53:44.820Z,91.6
2017-09-20T04:54:44.245Z,91.5
2017-09-20T04:55:43.167Z,91.5
2017-09-20T04:56:42.467Z,91.3
2017-09-20T04:58:40.646Z,91.4
2017-09-20T04:59:39.832Z,91.4
2017-09-20T05:00:38.880Z,91.3
2017-09-20T05:02:37.185Z,91.3
2017-09-20T05:03:36.240Z,91.4
2017-09-20T05:04:35.412Z,91.2
2017-09-20T05:05:05.771Z,91.2
2017-09-20T05:05:36.011Z,91.1
2017-09-20T05:06:06.751Z,91.1
2017-09-20T05:06:37.359Z,91.2
2017-09-20T05:07:07.471Z,91.2
2017-09-20T05:08:32.063Z,91.2
2017-09-20T05:09:31.232Z,91.3
2017-09-20T05:10:30.026Z,91.3
2017-09-20T05:11:29.454Z,91.3
2017-09-20T05:12:28.632Z,91.3
2017-09-20T05:13:27.930Z,91.3
2017-09-20T05:14:26.726Z,91.4
2017-09-20T05:15:26.154Z,91.4
2017-09-20T05:16:24.953Z,91.2
2017-09-20T05:17:24.133Z,91.3
2017-09-20T05:18:23.309Z,91.3
2017-09-20T05:19:22.240Z,91.3
2017-09-20T05:20:21.413Z,91.5
2017-09-20T05:21:20.706Z,91.2
2017-09-20T05:22:19.883Z,91.3
2017-09-20T05:23:19.057Z,91.3
2017-09-20T05:24:18.232Z,91.4
2017-09-20T05:25:17.532Z,91.4
2017-09-20T05:25:48.144Z,91.4
2017-09-20T05:27:15.755Z,91.1
2017-09-20T05:28:14.674Z,91.1
2017-09-20T05:29:13.718Z,91.4
2017-09-20T05:31:12.399Z,91.3
2017-09-20T05:32:11.448Z,91.3
2017-09-20T05:33:10.762Z,91.2
2017-09-20T05:34:09.808Z,91.2
2017-09-20T05:35:08.727Z,91.2
2017-09-20T05:36:08.030Z,91.3
2017-09-20T05:37:07.204Z,91.3
2017-09-20T05:38:06.507Z,91.3
2017-09-20T05:39:05.302Z,91.4
2017-09-20T05:40:04.631Z,91.4
2017-09-20T05:41:03.429Z,91.4
2017-09-20T05:42:02.728Z,91.4
2017-09-20T05:43:01.783Z,91.3
2017-09-20T05:44:01.202Z,91.4
2017-09-20T05:45:00.250Z,91.4
2017-09-20T05:45:59.432Z,91.4
2017-09-20T05:46:58.732Z,91.4
2017-09-20T05:47:57.908Z,91.3
2017-09-20T05:48:56.835Z,91.2
2017-09-20T05:49:56.131Z,91.2
2017-09-20T05:50:55.308Z,91.2
2017-09-20T05:51:54.230Z,91.2
2017-09-20T05:52:53.533Z,91.5
2017-09-20T05:53:52.584Z,91.3
2017-09-20T05:54:51.505Z,91.5
2017-09-20T05:55:50.935Z,91.8
2017-09-20T05:56:50.108Z,91.8
2017-09-20T05:57:48.901Z,91.9
2017-09-20T05:58:48.326Z,92.3
2017-09-20T05:59:47.502Z,92.1
2017-09-20T06:00:46.423Z,92.2
2017-09-20T06:01:45.719Z,92.4
2017-09-20T06:02:44.768Z,92.4
2017-09-20T06:03:43.810Z,92.6
2017-09-20T06:04:43.109Z,92.7
2017-09-20T06:06:41.432Z,92.6
2017-09-20T06:07:40.472Z,92.9
2017-09-20T06:08:39.892Z,92.9
2017-09-20T06:09:38.686Z,93.3
2017-09-20T06:10:37.860Z,93.2
2017-09-20T06:12:36.176Z,93.1
2017-09-20T06:13:35.482Z,93.2
2017-09-20T06:14:34.791Z,93.3
2017-09-20T06:15:33.709Z,93.3
2017-09-20T06:16:33.010Z,93.2
2017-09-20T06:17:32.307Z,93.1
2017-09-20T06:18:31.113Z,93
2017-09-20T06:19:30.564Z,93.1
2017-09-20T06:20:29.240Z,93.2
2017-09-20T06:21:28.540Z,93
2017-09-20T06:22:27.457Z,93.1
2017-09-20T06:23:26.763Z,93.2
2017-09-20T06:25:25.325Z,93.3
2017-09-20T06:27:23.379Z,93.4
2017-09-20T06:28:22.679Z,93.6
2017-09-20T06:30:20.741Z,93.4
2017-09-20T06:31:19.928Z,93.2
2017-09-20T06:32:19.359Z,93.3
2017-09-20T06:33:18.027Z,93.3
2017-09-20T06:35:16.728Z,93.3
2017-09-20T06:36:15.775Z,93.3
2017-09-20T06:37:14.817Z,93.3
2017-09-20T06:38:14.242Z,93.3
2017-09-20T06:39:13.418Z,93.2
2017-09-20T06:40:12.343Z,93.3
2017-09-20T06:40:42.956Z,93.3
2017-09-20T06:44:08.967Z,93.6
2017-09-20T06:45:08.272Z,93.7
2017-09-20T06:46:07.072Z,93.7
2017-09-20T06:47:06.243Z,93.8
2017-09-20T06:48:05.414Z,94
2017-09-20T06:50:04.110Z,94
2017-09-20T06:52:02.038Z,94.1
2017-09-20T06:53:01.226Z,94.4
2017-09-20T06:54:00.166Z,94.3
2017-09-20T06:54:59.336Z,94.2
2017-09-20T06:55:58.384Z,94.1
2017-09-20T06:56:57.936Z,94.1
2017-09-20T06:58:55.993Z,93.8
2017-09-20T07:00:54.421Z,93.9
2017-09-20T07:01:53.597Z,93.8
2017-09-20T07:02:52.894Z,93.7
2017-09-20T07:03:51.699Z,93.9
2017-09-20T07:05:50.129Z,93.6
2017-09-20T07:06:49.427Z,94
2017-09-20T07:10:45.873Z,93.9
2017-09-20T07:11:45.295Z,93.7
2017-09-20T07:12:44.215Z,93.8
2017-09-20T07:13:43.388Z,93.5
2017-09-20T07:14:42.307Z,93.5
2017-09-20T07:18:39.273Z,93.8
2017-09-20T07:19:38.190Z,94.1
2017-09-20T07:20:37.364Z,93.6
2017-09-20T07:22:35.545Z,93.8
2017-09-20T07:23:34.720Z,94
2017-09-20T07:24:34.014Z,94
2017-09-20T07:25:33.061Z,94.3
2017-09-20T07:27:31.374Z,94.3
2017-09-20T07:29:29.687Z,94.4
2017-09-20T07:30:28.990Z,94.5
2017-09-20T07:31:28.169Z,94.4
2017-09-20T07:32:27.092Z,94.6
2017-09-20T07:33:26.392Z,94.9
2017-09-20T07:34:25.694Z,94.9
2017-09-20T07:35:24.869Z,95
2017-09-20T07:38:22.190Z,94.9
2017-09-20T07:39:21.359Z,95
2017-09-20T07:41:19.539Z,94.9
2017-09-20T07:42:18.462Z,94.8
2017-09-20T07:43:17.763Z,94.3
2017-09-20T07:45:16.079Z,94.7
2017-09-20T07:46:15.507Z,94.9
2017-09-20T07:47:14.425Z,95
2017-09-20T07:48:13.469Z,94.7
2017-09-20T07:49:12.896Z,94.7
2017-09-20T07:50:11.944Z,95.4
2017-09-20T07:51:10.988Z,94.8
2017-09-20T07:53:09.429Z,94.9
2017-09-20T07:54:08.348Z,94.7
2017-09-20T07:55:07.515Z,94.8
2017-09-20T07:57:06.357Z,94.6
2017-09-20T07:58:05.157Z,94.8
2017-09-20T07:59:04.330Z,94.5
2017-09-20T08:00:03.508Z,94.5
2017-09-20T08:01:02.683Z,94.4
2017-09-20T08:02:01.851Z,94.2
2017-09-20T08:03:01.277Z,94.2
2017-09-20T08:04:00.203Z,94.1
2017-09-20T08:04:59.499Z,94.1
2017-09-20T08:06:57.552Z,93.9
2017-09-20T08:07:56.852Z,94.2
2017-09-20T08:09:55.406Z,94.1
2017-09-20T08:10:54.200Z,94
2017-09-20T08:11:53.507Z,93.9
2017-09-20T08:12:52.808Z,93.2
2017-09-20T08:13:51.855Z,93.7
2017-09-20T08:14:50.784Z,93.4
2017-09-20T08:15:49.966Z,93.2
2017-09-20T08:16:49.391Z,93.5
2017-09-20T08:17:48.699Z,94
2017-09-20T08:18:47.870Z,93.8
2017-09-20T08:19:46.790Z,94
2017-09-20T08:20:46.215Z,93.8
2017-09-20T08:21:16.452Z,93.8
2017-09-20T08:21:46.681Z,93.5
2017-09-20T08:22:17.042Z,93.5
2017-09-20T08:23:43.401Z,93.2
2017-09-20T08:24:42.696Z,92.6
2017-09-20T08:26:40.874Z,93
2017-09-20T08:27:40.043Z,93.7
2017-09-20T08:28:39.342Z,91.6
2017-09-20T08:29:38.137Z,92
2017-09-20T08:30:37.560Z,92.7
2017-09-20T08:32:35.999Z,92.8
2017-09-20T08:33:35.044Z,92.7
2017-09-20T08:34:34.347Z,92.1
2017-09-20T08:35:33.638Z,92.7
2017-09-20T08:36:32.806Z,91.5
2017-09-20T08:37:31.859Z,92.3
2017-09-20T08:38:31.157Z,91.5
2017-09-20T08:39:29.954Z,91.9
2017-09-20T08:40:29.500Z,91.5
2017-09-20T08:41:28.294Z,91.7
2017-09-20T08:42:27.336Z,91.5
2017-09-20T08:43:26.763Z,92.1
2017-09-20T08:44:26.065Z,92.5
2017-09-20T08:45:24.989Z,92.3
2017-09-20T08:46:24.292Z,91.7
2017-09-20T08:47:23.464Z,92
2017-09-20T08:48:22.766Z,92.1
2017-09-20T08:49:21.938Z,92.1
2017-09-20T08:50:21.113Z,90.9
2017-09-20T08:51:20.417Z,91.6
2017-09-20T08:52:19.208Z,91.5
2017-09-20T08:53:18.629Z,91.9
2017-09-20T08:54:17.929Z,92.3
2017-09-20T08:55:17.230Z,90.5
2017-09-20T08:56:16.281Z,91
2017-09-20T08:57:15.454Z,90.9
2017-09-20T08:58:14.501Z,89.4
2017-09-20T08:59:13.923Z,89.7
2017-09-20T09:00:12.839Z,89
2017-09-20T09:01:12.021Z,89.6
2017-09-20T09:02:11.061Z,88.9
2017-09-20T09:03:10.360Z,88.3
2017-09-20T09:03:40.976Z,88.3
2017-09-20T09:05:08.598Z,88.3
2017-09-20T09:06:07.770Z,87.8
2017-09-20T09:07:07.204Z,87.5
2017-09-20T09:08:06.502Z,87.8
2017-09-20T09:09:05.555Z,87.5
2017-09-20T09:10:04.607Z,87.6
2017-09-20T09:11:03.911Z,88.4
2017-09-20T09:12:02.963Z,86.7
2017-09-20T09:13:02.008Z,87.8
2017-09-20T09:14:01.186Z,87
2017-09-20T09:14:31.939Z,87
2017-09-20T09:15:02.557Z,87.4
2017-09-20T09:16:58.745Z,87.9
2017-09-20T09:17:58.073Z,87
2017-09-20T09:18:57.122Z,87.5
2017-09-20T09:19:56.423Z,87.9
2017-09-20T09:20:55.720Z,87.4
2017-09-20T09:21:55.019Z,87.2
2017-09-20T09:22:54.322Z,87.5
2017-09-20T09:23:53.428Z,88.1
2017-09-20T09:24:52.720Z,88.8
2017-09-20T09:25:51.896Z,88
2017-09-20T09:26:51.070Z,87.6
2017-09-20T09:27:49.994Z,88.1
2017-09-20T09:28:49.039Z,88.1
2017-09-20T09:29:48.467Z,88.1
2017-09-20T09:30:47.771Z,88
2017-09-20T09:31:47.064Z,87.3
2017-09-20T09:32:46.112Z,86.7
2017-09-20T09:34:44.548Z,87.1
2017-09-20T09:35:43.723Z,87.6
2017-09-20T09:36:42.643Z,86
2017-09-20T09:37:42.317Z,86.4
2017-09-20T09:38:41.119Z,86.3
2017-09-20T09:39:40.539Z,87.4
2017-09-20T09:40:39.462Z,86.1
2017-09-20T09:41:39.138Z,85.5
2017-09-20T09:43:37.316Z,86.5
2017-09-20T09:44:36.360Z,86.7
2017-09-20T09:45:35.531Z,85.3
2017-09-20T09:46:34.707Z,85.5
2017-09-20T09:47:34.137Z,85.5
2017-09-20T09:48:33.055Z,85.3
2017-09-20T09:49:32.609Z,85.8
2017-09-20T09:50:31.914Z,84.7
2017-09-20T09:51:30.581Z,85.3
2017-09-20T09:52:30.023Z,86
2017-09-20T09:53:29.451Z,86
2017-09-20T09:54:28.757Z,85.7
2017-09-20T09:55:27.427Z,85.2
2017-09-20T09:56:26.980Z,85.4
2017-09-20T09:57:25.780Z,83.2
2017-09-20T09:58:25.075Z,83.7
2017-09-20T09:58:55.756Z,83.7
2017-09-20T10:00:23.710Z,85.1
2017-09-20T10:01:22.757Z,83.7
2017-09-20T10:02:21.803Z,83.6
2017-09-20T10:03:21.232Z,84.4
2017-09-20T10:05:19.917Z,83.3
2017-09-20T10:06:18.717Z,83.9
2017-09-20T10:08:17.276Z,84.1
2017-09-20T10:09:16.456Z,83.6
2017-09-20T10:10:16.004Z,83
2017-09-20T10:11:14.928Z,82.9
2017-09-20T10:12:13.974Z,78.1
2017-09-20T10:13:13.282Z,76.9
2017-09-20T10:14:12.453Z,76.8
2017-09-20T10:15:11.632Z,77.6
2017-09-20T10:16:10.933Z,78.5
2017-09-20T10:17:10.486Z,77.8
2017-09-20T10:18:09.528Z,77.8
2017-09-20T10:19:08.324Z,77.9
2017-09-20T10:20:07.749Z,78.5
2017-09-20T10:21:07.365Z,77.5
2017-09-20T10:22:06.289Z,77.2
2017-09-20T10:23:05.204Z,75.5
2017-09-20T10:24:04.385Z,76.2
2017-09-20T10:25:03.816Z,76.5
2017-09-20T10:26:02.998Z,76.3
2017-09-20T10:27:02.421Z,76.7
2017-09-20T10:28:01.724Z,76.1
2017-09-20T10:29:00.904Z,76
2017-09-20T10:29:59.823Z,76.4
2017-09-20T10:30:59.378Z,75.8
2017-09-20T10:31:58.683Z,76.5
2017-09-20T10:32:57.484Z,76.5
2017-09-20T10:33:57.038Z,75
2017-09-20T10:34:55.902Z,75.2
2017-09-20T10:36:54.593Z,72.5
2017-09-20T10:37:53.894Z,71.8
2017-09-20T10:38:53.074Z,72.2
2017-09-20T10:39:23.435Z,72.2
2017-09-20T10:39:53.797Z,72.3
2017-09-20T10:40:24.277Z,72.3
2017-09-20T10:41:50.625Z,73.6
2017-09-20T10:42:49.801Z,73.7
2017-09-20T10:43:48.980Z,71.4
2017-09-20T10:44:48.276Z,69.4
2017-09-20T10:45:47.579Z,70.5
2017-09-20T10:46:46.881Z,71.1
2017-09-20T10:47:45.808Z,71.8
2017-09-20T10:48:45.236Z,71.3
2017-09-20T10:49:15.597Z,71.3
2017-09-20T10:49:46.210Z,70.9
2017-09-20T10:50:16.832Z,70.9
2017-09-20T10:50:47.061Z,71.9
2017-09-20T10:51:17.670Z,71.9
2017-09-20T10:51:48.281Z,69.9
2017-09-20T10:52:18.386Z,69.9
2017-09-20T10:52:48.908Z,70.2
2017-09-20T10:53:19.400Z,70.2
2017-09-20T10:55:39.854Z,70.6
2017-09-20T10:57:38.128Z,67.6
2017-09-20T10:58:37.431Z,69
2017-09-20T10:59:36.727Z,68.2
2017-09-20T11:00:35.776Z,68.9
2017-09-20T11:01:35.080Z,68.8
2017-09-20T11:02:34.384Z,68
2017-09-20T11:03:33.430Z,69.1
2017-09-20T11:06:31.121Z,69.2
2017-09-20T11:07:30.671Z,68.5
2017-09-20T11:08:29.966Z,68.3
2017-09-20T11:09:28.766Z,68.7
2017-09-20T11:10:28.189Z,68.6
2017-09-20T11:11:27.609Z,68.5
2017-09-20T11:12:26.654Z,69.4
2017-09-20T11:13:25.706Z,69.2
2017-09-20T11:15:24.398Z,69.1
2017-09-20T11:16:23.828Z,69.3
2017-09-20T11:17:22.748Z,69.9
2017-09-20T11:18:21.930Z,69.3
2017-09-20T11:19:21.246Z,67.4
2017-09-20T11:20:20.679Z,67
2017-09-20T11:21:19.620Z,66.7
2017-09-20T11:22:18.920Z,68.2
2017-09-20T11:22:49.154Z,68.2
2017-09-20T11:23:19.778Z,65.9
2017-09-20T11:24:17.568Z,66.2
2017-09-20T11:25:16.735Z,65.4
2017-09-20T11:26:16.036Z,64.9
2017-09-20T11:27:14.958Z,65.2
2017-09-20T11:28:14.130Z,64
2017-09-20T11:29:13.561Z,61.8
2017-09-20T11:30:12.734Z,61.5
2017-09-20T11:31:12.286Z,61.8
2017-09-20T11:32:11.462Z,62.4
2017-09-20T11:33:10.638Z,63.4
2017-09-20T11:33:41.127Z,63.4
2017-09-20T11:34:11.862Z,62.7
2017-09-20T11:35:09.029Z,64.2
2017-09-20T11:36:08.455Z,64.7
2017-09-20T11:37:07.630Z,64.8
2017-09-20T11:38:06.553Z,64.9
2017-09-20T11:39:05.851Z,65
2017-09-20T11:40:05.401Z,65.4
2017-09-20T11:41:04.702Z,65.1
2017-09-20T11:42:03.873Z,66.3
2017-09-20T11:43:03.171Z,65.2
2017-09-20T11:44:02.219Z,63.9
2017-09-20T11:45:01.264Z,64.4
2017-09-20T11:46:00.944Z,64.2
2017-09-20T11:47:59.002Z,64
2017-09-20T11:49:57.942Z,64.7
2017-09-20T11:50:57.113Z,65.1
2017-09-20T11:51:56.413Z,64.7
2017-09-20T11:53:54.467Z,64.2
2017-09-20T11:56:52.682Z,65
2017-09-20T11:59:50.122Z,64.8
2017-09-20T12:00:49.546Z,64.2
2017-09-20T12:01:48.590Z,63.5
2017-09-20T12:02:47.763Z,64
2017-09-20T12:03:47.304Z,65.1
2017-09-20T12:04:46.231Z,65.3
2017-09-20T12:05:45.530Z,66.2
2017-09-20T12:07:43.837Z,65.8
2017-09-20T12:08:43.262Z,66.1
2017-09-20T12:09:42.942Z,65.9
2017-09-20T12:10:41.613Z,65.8
2017-09-20T12:12:40.170Z,65.6
2017-09-20T12:13:39.848Z,66.2
2017-09-20T12:14:38.895Z,66.7
2017-09-20T12:15:38.071Z,66.5
2017-09-20T12:16:37.371Z,66.6
2017-09-20T12:17:36.417Z,67.1
2017-09-20T12:18:36.105Z,68.1
2017-09-20T12:19:06.345Z,68.1
2017-09-20T12:19:36.585Z,68.1
2017-09-20T12:20:33.994Z,68.3
2017-09-20T12:21:04.602Z,68.3
2017-09-20T12:21:35.345Z,68.6
2017-09-20T12:22:32.883Z,68.5
2017-09-20T12:23:32.053Z,69.3
2017-09-20T12:24:31.344Z,70.6
2017-09-20T12:26:29.895Z,74.2
2017-09-20T12:31:25.853Z,85.7
2017-09-20T12:32:25.403Z,86.9
2017-09-20T12:33:24.074Z,87.6
2017-09-20T12:34:23.748Z,89.9
2017-09-20T12:35:22.544Z,89.2
2017-09-20T12:36:22.349Z,89.4
2017-09-20T12:37:21.290Z,90.5
2017-09-20T12:39:19.859Z,91.2
2017-09-20T12:41:18.287Z,90.9
2017-09-20T12:42:17.203Z,90
2017-09-20T12:43:16.382Z,90.4
2017-09-20T12:44:15.931Z,90.5
2017-09-20T12:45:15.107Z,90.5
2017-09-20T12:49:11.932Z,93.4
2017-09-20T12:50:11.099Z,93
2017-09-20T12:51:10.275Z,93.2
2017-09-20T12:52:09.201Z,93.1
2017-09-20T12:53:08.633Z,92
2017-09-20T12:54:07.936Z,92.4
2017-09-20T12:56:06.123Z,92.8
2017-09-20T12:57:05.428Z,92.9
2017-09-20T12:58:04.724Z,93.3
2017-09-20T12:59:03.889Z,93.4
2017-09-20T13:06:57.501Z,94
2017-09-20T13:08:55.932Z,94.8
2017-09-20T13:10:54.112Z,95
2017-09-20T13:11:24.738Z,95
2017-09-20T13:12:52.973Z,95
2017-09-20T13:13:51.897Z,93.7
2017-09-20T13:14:51.323Z,94.4
2017-09-20T13:15:50.370Z,93.9
2017-09-20T13:16:49.668Z,94
2017-09-20T13:17:48.843Z,94
2017-09-20T13:18:48.018Z,93.9
2017-09-20T13:19:47.444Z,93.8
2017-09-20T13:20:46.619Z,93.8
2017-09-20T13:21:45.915Z,93.8
2017-09-20T13:22:16.400Z,93.8
2017-09-20T13:23:43.746Z,93.9
2017-09-20T13:24:43.421Z,93.7
2017-09-20T13:26:41.598Z,93.5
2017-09-20T13:27:40.895Z,93.7
2017-09-20T13:28:40.194Z,93.7
2017-09-20T13:29:39.111Z,93.8
2017-09-20T13:31:37.923Z,93.8
2017-09-20T13:32:36.976Z,94
2017-09-20T13:34:35.160Z,94.1
2017-09-20T13:35:34.833Z,93.7
2017-09-20T13:36:33.501Z,93.6
2017-09-20T13:37:32.675Z,93.4
2017-09-20T13:38:32.354Z,93.2
2017-09-20T13:39:31.150Z,91.7
2017-09-20T13:40:30.445Z,89.1
2017-09-20T13:44:27.396Z,83.3
2017-09-20T13:45:26.702Z,79.9
2017-09-20T13:48:24.262Z,81.3
2017-09-20T13:52:21.346Z,79.3
2017-09-20T13:57:17.193Z,80
2017-09-20T14:02:13.533Z,78.4
2017-09-20T14:03:12.699Z,77.8
2017-09-20T14:04:11.995Z,79.8
2017-09-20T14:05:11.296Z,82.7
2017-09-20T14:06:09.967Z,82.4
2017-09-20T14:10:07.043Z,85.3
2017-09-20T14:11:06.350Z,85.2
2017-09-20T14:12:05.524Z,81.4
2017-09-20T14:15:03.108Z,79.1
2017-09-20T14:16:02.783Z,79.8
2017-09-20T14:17:01.577Z,80.6
2017-09-20T14:18:00.629Z,80.4
2017-09-20T14:19:59.314Z,79.7
2017-09-20T14:20:58.623Z,76.9
2017-09-20T14:21:57.545Z,77.6
2017-09-20T14:22:56.842Z,76.3
2017-09-20T14:23:56.394Z,76
2017-09-20T14:24:55.709Z,77
2017-09-20T14:27:53.144Z,75.3
2017-09-20T14:28:52.327Z,77.2
2017-09-20T14:29:51.758Z,78.6
2017-09-20T14:30:50.845Z,76.9
2017-09-20T14:31:50.015Z,77.6
2017-09-20T14:32:49.185Z,77.7
2017-09-20T14:33:48.734Z,79
2017-09-20T14:36:46.045Z,74.7
2017-09-20T14:37:45.463Z,75
2017-09-20T14:38:44.757Z,73.6
2017-09-20T14:39:43.811Z,74.1
2017-09-20T14:40:43.111Z,76.7
2017-09-20T14:41:42.411Z,76.8
2017-09-20T14:42:41.583Z,77.1
2017-09-20T14:43:40.880Z,77.5
2017-09-20T14:44:11.367Z,77.5
2017-09-20T14:44:41.726Z,76.6
2017-09-20T14:45:39.517Z,77.4
2017-09-20T14:46:38.566Z,77.6
2017-09-20T14:47:37.738Z,78.6
2017-09-20T14:48:36.920Z,78.8
2017-09-20T14:49:36.211Z,79.2
2017-09-20T14:50:35.131Z,79.8
2017-09-20T14:51:34.439Z,80.7
2017-09-20T14:52:33.735Z,80.8
2017-09-20T14:53:33.042Z,82